Time;durP1;ratioP1;P1;durP2;ratioP2;P2;SDS_P1;SDS_P2;PMS_P1;PMS_P2;Temp;Humidity;BMP_temperature;BMP_pressure;BME280_temperature;BME280_humidity;BME280_pressure;Samples;Min_cycle;Max_cycle;Signal;HPM_P1;HPM_P2
2022/07/22 00:00:39;;;;;;;5.80;1.60;;;;;;;21.91;34.87;100226.44;117260;1184;21879;-61
2022/07/22 00:03:06;;;;;;;3.80;1.30;;;;;;;21.88;34.99;100230.92;117381;1182;22905;-57
2022/07/22 00:05:36;;;;;;;3.50;1.10;;;;;;;21.83;35.07;100230.55;117371;1186;22909;-56
2022/07/22 00:08:04;;;;;;;1.50;0.80;;;;;;;21.78;35.16;100231.16;117310;1186;23201;-56
2022/07/22 00:10:30;;;;;;;4.10;1.20;;;;;;;21.75;35.21;100229.25;117335;1182;22906;-56
2022/07/22 00:12:57;;;;;;;3.10;1.10;;;;;;;21.70;35.39;100228.27;117383;1185;23699;-57
2022/07/22 00:15:25;;;;;;;4.00;1.10;;;;;;;21.64;35.54;100227.17;117383;1186;21827;-56
2022/07/22 00:17:52;;;;;;;2.40;1.20;;;;;;;21.61;35.76;100230.79;117245;1186;22930;-59
2022/07/22 00:20:20;;;;;;;4.30;1.20;;;;;;;21.60;35.85;100228.35;117344;1185;22974;-59
2022/07/22 00:22:47;;;;;;;2.20;1.20;;;;;;;21.58;35.92;100228.61;117276;1185;21912;-56
2022/07/22 00:25:14;;;;;;;3.20;1.10;;;;;;;21.54;35.93;100231.89;117284;1183;21860;-62
2022/07/22 00:27:41;;;;;;;2.50;1.20;;;;;;;21.50;36.33;100230.66;117171;1186;22914;-60
2022/07/22 00:30:08;;;;;;;5.40;1.60;;;;;;;21.48;36.62;100231.17;117369;1183;22091;-59
2022/07/22 00:32:35;;;;;;;3.30;1.50;;;;;;;21.48;36.64;100230.45;117412;1186;21860;-55
2022/07/22 00:35:03;;;;;;;4.20;1.60;;;;;;;21.52;36.96;100230.93;117350;1186;21827;-61
2022/07/22 00:37:30;;;;;;;6.10;1.80;;;;;;;21.58;37.29;100230.94;117096;1183;24141;-60
2022/07/22 00:39:57;;;;;;;4.50;1.90;;;;;;;21.63;37.53;100231.16;117355;1186;22999;-57
2022/07/22 00:42:24;;;;;;;6.80;2.10;;;;;;;21.70;37.48;100231.27;117410;1186;21863;-60
2022/07/22 00:44:53;;;;;;;5.50;2.30;;;;;;;21.79;37.48;100227.58;117296;1186;22090;-61
2022/07/22 00:47:21;;;;;;;4.80;2.40;;;;;;;21.85;37.54;100229.36;117243;1188;22962;-56
2022/07/22 00:49:48;;;;;;;5.40;2.20;;;;;;;21.90;37.60;100227.73;117383;1185;21836;-55
2022/07/22 00:52:15;;;;;;;5.10;1.80;;;;;;;21.96;37.49;100224.55;117346;1183;22336;-55
2022/07/22 00:54:42;;;;;;;7.50;2.40;;;;;;;21.99;37.35;100222.38;117237;1186;23539;-55
2022/07/22 00:57:09;;;;;;;6.00;2.90;;;;;;;22.03;37.41;100221.62;117295;1185;22925;-57
2022/07/22 00:59:36;;;;;;;5.00;2.20;;;;;;;22.05;37.37;100219.15;117322;1183;23534;-62
2022/07/22 01:02:03;;;;;;;7.00;1.90;;;;;;;22.06;37.35;100217.11;117298;1183;23079;-56
2022/07/22 01:04:30;;;;;;;4.40;1.90;;;;;;;22.07;37.38;100217.08;117120;1186;22954;-56
2022/07/22 01:06:57;;;;;;;5.20;1.90;;;;;;;22.07;37.26;100213.29;117271;1185;21846;-61
2022/07/22 01:09:24;;;;;;;5.00;2.10;;;;;;;22.08;37.22;100214.88;117266;1183;22924;-61
2022/07/22 01:11:51;;;;;;;4.20;1.80;;;;;;;22.07;37.19;100218.11;117261;1185;22800;-61
2022/07/22 01:14:18;;;;;;;6.60;2.10;;;;;;;22.05;37.22;100215.60;117320;1182;22978;-57
2022/07/22 01:16:45;;;;;;;3.90;1.90;;;;;;;21.99;37.32;100213.62;117315;1183;23687;-55
2022/07/22 01:19:15;;;;;;;5.30;1.80;;;;;;;21.93;37.35;100211.50;117278;1187;23002;-56
2022/07/22 01:21:42;;;;;;;4.70;2.00;;;;;;;21.87;37.28;100213.88;117310;1188;21900;-55
2022/07/22 01:24:09;;;;;;;6.30;2.20;;;;;;;21.81;37.36;100212.95;117318;1183;22909;-61
2022/07/22 01:26:36;;;;;;;3.10;1.50;;;;;;;21.76;37.52;100211.32;117225;1183;24772;-57
2022/07/22 01:29:03;;;;;;;4.70;1.80;;;;;;;21.70;37.44;100210.23;117252;1186;21854;-55
2022/07/22 01:31:30;;;;;;;7.00;2.30;;;;;;;21.64;37.48;100208.98;117320;1186;21871;-56
2022/07/22 01:33:58;;;;;;;5.80;1.90;;;;;;;21.61;37.61;100210.09;117320;1182;21858;-57
2022/07/22 01:36:25;;;;;;;5.50;2.20;;;;;;;21.57;37.56;100208.48;117329;1183;21888;-55
2022/07/22 01:38:53;;;;;;;5.30;1.80;;;;;;;21.55;37.56;100208.27;117273;1186;21851;-60
2022/07/22 01:41:21;;;;;;;4.30;1.90;;;;;;;21.52;37.60;100206.27;117231;1189;21866;-61
2022/07/22 01:43:48;;;;;;;7.20;1.80;;;;;;;21.46;37.54;100205.38;117247;1183;22810;-55
2022/07/22 01:46:16;;;;;;;6.20;1.90;;;;;;;21.37;37.60;100203.83;117245;1184;22913;-60
2022/07/22 01:48:44;;;;;;;4.20;1.70;;;;;;;21.27;37.59;100202.10;117212;1189;21868;-60
2022/07/22 01:51:12;;;;;;;4.50;2.20;;;;;;;21.20;37.62;100206.98;117184;1189;21857;-61
2022/07/22 01:53:39;;;;;;;6.50;1.60;;;;;;;21.14;37.69;100209.11;117236;1186;21870;-56
2022/07/22 01:56:06;;;;;;;9.90;2.50;;;;;;;21.09;37.79;100211.16;117277;1184;23618;-56
2022/07/22 01:58:33;;;;;;;6.60;1.70;;;;;;;21.06;37.75;100217.02;117267;1186;22628;-55
2022/07/22 02:01:07;;;;;;;2.90;1.40;;;;;;;21.03;37.68;100215.60;117267;1186;22909;-55
2022/07/22 02:03:35;;;;;;;4.50;1.70;;;;;;;20.99;37.68;100210.15;117265;1186;22343;-61
2022/07/22 02:06:03;;;;;;;4.70;2.00;;;;;;;20.93;37.80;100214.45;117281;1186;22908;-62
2022/07/22 02:08:30;;;;;;;4.20;1.70;;;;;;;20.86;37.85;100215.91;117317;1186;21892;-55
2022/07/22 02:10:57;;;;;;;6.50;1.90;;;;;;;20.81;37.92;100217.77;117236;1185;21900;-55
2022/07/22 02:13:24;;;;;;;7.60;1.80;;;;;;;20.77;38.00;100216.02;117130;1186;23459;-61
2022/07/22 02:15:51;;;;;;;10.90;2.10;;;;;;;20.74;38.10;100213.17;117194;1186;22823;-56
2022/07/22 02:18:18;;;;;;;10.80;2.40;;;;;;;20.71;38.26;100212.09;117270;1185;21975;-61
2022/07/22 02:20:46;;;;;;;11.70;2.40;;;;;;;20.67;38.23;100213.23;117265;1186;21928;-61
2022/07/22 02:23:13;;;;;;;6.50;1.90;;;;;;;20.61;38.32;100212.63;117082;1188;23553;-55
2022/07/22 02:25:40;;;;;;;6.00;1.60;;;;;;;20.54;38.40;100214.13;117283;1186;22908;-55
2022/07/22 02:28:07;;;;;;;4.50;1.30;;;;;;;20.43;38.46;100211.31;117201;1188;21892;-55
2022/07/22 02:30:34;;;;;;;5.20;1.60;;;;;;;20.36;38.61;100214.36;117307;1186;24306;-56
2022/07/22 02:33:01;;;;;;;4.00;1.80;;;;;;;20.29;38.79;100214.07;117348;1186;21888;-55
2022/07/22 02:35:28;;;;;;;5.10;1.30;;;;;;;20.27;38.84;100214.17;117094;1186;23541;-61
2022/07/22 02:37:56;;;;;;;4.10;1.50;;;;;;;20.28;38.92;100215.18;117326;1183;21854;-56
2022/07/22 02:40:23;;;;;;;4.80;1.40;;;;;;;20.31;38.93;100218.42;117306;1189;22912;-55
2022/07/22 02:42:50;;;;;;;4.10;1.50;;;;;;;20.33;39.03;100223.80;117197;1186;21875;-56
2022/07/22 02:45:17;;;;;;;5.40;1.50;;;;;;;20.34;39.03;100220.02;116990;1188;22923;-55
2022/07/22 02:47:51;;;;;;;7.20;1.80;;;;;;;20.32;39.10;100215.87;117275;1183;21940;-56
2022/07/22 02:50:19;;;;;;;3.60;1.30;;;;;;;20.29;39.19;100218.37;117320;1183;23477;-61
2022/07/22 02:52:46;;;;;;;5.20;1.60;;;;;;;20.26;39.28;100218.32;117179;1183;22908;-55
2022/07/22 02:55:13;;;;;;;6.30;1.50;;;;;;;20.23;39.37;100215.10;117156;1182;22798;-55
2022/07/22 02:57:40;;;;;;;3.20;1.20;;;;;;;20.20;39.54;100220.97;117308;1186;21858;-61
2022/07/22 03:00:09;;;;;;;8.20;1.50;;;;;;;20.18;39.55;100225.33;117365;1183;23544;-55
2022/07/22 03:02:36;;;;;;;11.50;1.90;;;;;;;20.21;39.66;100225.20;117239;1186;22907;-55
2022/07/22 03:05:05;;;;;;;9.80;1.80;;;;;;;20.24;39.70;100223.98;117227;1183;22618;-60
2022/07/22 03:07:32;;;;;;;8.70;1.70;;;;;;;20.27;39.83;100227.01;117350;1183;22916;-61
2022/07/22 03:10:00;;;;;;;8.60;1.80;;;;;;;20.29;39.91;100226.55;117261;1183;22821;-60
2022/07/22 03:12:29;;;;;;;10.60;1.90;;;;;;;20.30;40.23;100226.29;117310;1186;23557;-61
2022/07/22 03:14:56;;;;;;;12.50;1.60;;;;;;;20.31;40.08;100227.67;117297;1186;23547;-60
2022/07/22 03:17:23;;;;;;;8.80;1.50;;;;;;;20.34;40.07;100218.55;117291;1185;22628;-56
2022/07/22 03:19:50;;;;;;;10.70;2.60;;;;;;;20.41;39.97;100218.06;117225;1186;22969;-55
2022/07/22 03:22:17;;;;;;;8.10;1.60;;;;;;;20.48;40.01;100222.46;117160;1185;23598;-60
2022/07/22 03:24:45;;;;;;;15.00;2.00;;;;;;;20.55;40.20;100220.85;117371;1186;22634;-61
2022/07/22 03:27:12;;;;;;;24.20;3.00;;;;;;;20.60;40.26;100220.20;117256;1184;21887;-55
2022/07/22 03:29:39;;;;;;;12.20;2.70;;;;;;;20.64;40.14;100223.68;117153;1185;23562;-56
2022/07/22 03:32:06;;;;;;;14.00;2.50;;;;;;;20.69;40.12;100224.87;117332;1186;22616;-61
2022/07/22 03:34:33;;;;;;;13.00;2.50;;;;;;;20.73;40.08;100224.47;117296;1186;22645;-61
2022/07/22 03:37:00;;;;;;;11.30;1.70;;;;;;;20.79;40.10;100226.27;117341;1183;23379;-61
2022/07/22 03:39:27;;;;;;;9.90;2.10;;;;;;;20.90;40.13;100230.51;117134;1185;22987;-55
2022/07/22 03:41:54;;;;;;;7.10;1.70;;;;;;;21.00;40.09;100228.45;117206;1182;22812;-61
2022/07/22 03:44:21;;;;;;;5.90;1.80;;;;;;;21.11;40.23;100227.64;117298;1183;22972;-56
2022/07/22 03:46:48;;;;;;;9.70;1.80;;;;;;;21.23;40.27;100233.34;117289;1183;22964;-56
2022/07/22 03:49:15;;;;;;;5.50;1.70;;;;;;;21.35;40.21;100227.67;117104;1187;22172;-61
2022/07/22 03:51:42;;;;;;;6.40;1.50;;;;;;;21.46;40.08;100229.84;117262;1186;22219;-61
2022/07/22 03:54:10;;;;;;;6.20;1.50;;;;;;;21.57;39.96;100231.01;117240;1186;22979;-61
2022/07/22 03:56:38;;;;;;;8.20;2.10;;;;;;;21.66;39.90;100235.08;117112;1189;22986;-61
2022/07/22 03:59:05;;;;;;;7.20;1.90;;;;;;;21.77;39.77;100233.56;117240;1185;22999;-61
2022/07/22 04:01:32;;;;;;;12.70;2.50;;;;;;;21.88;39.72;100230.55;117336;1186;22905;-62
2022/07/22 04:03:59;;;;;;;4.60;1.80;;;;;;;22.02;39.75;100232.77;117260;1186;22961;-56
2022/07/22 04:06:31;;;;;;;5.50;1.50;;;;;;;22.14;39.68;100230.91;117087;1186;22098;-61
2022/07/22 04:08:59;;;;;;;4.70;1.70;;;;;;;22.26;39.71;100230.49;117150;1188;22323;-55
2022/07/22 04:11:27;;;;;;;6.50;1.50;;;;;;;22.42;39.56;100228.84;117175;1187;22910;-55
2022/07/22 04:13:53;;;;;;;3.50;1.40;;;;;;;22.56;39.53;100229.04;117116;1177;23654;-56
2022/07/22 04:16:20;;;;;;;9.20;1.40;;;;;;;22.69;39.33;100233.36;117102;1187;22633;-61
2022/07/22 04:18:48;;;;;;;6.70;1.80;;;;;;;22.82;39.02;100237.48;117043;1188;21973;-55
2022/07/22 04:21:15;;;;;;;7.10;1.80;;;;;;;22.96;39.13;100237.86;117048;1187;21889;-62
2022/07/22 04:23:42;;;;;;;11.40;2.20;;;;;;;23.11;39.27;100239.00;117003;1182;22914;-60
2022/07/22 04:26:09;;;;;;;7.00;1.70;;;;;;;23.23;39.32;100238.77;116957;1187;21883;-55
2022/07/22 04:28:36;;;;;;;5.70;1.40;;;;;;;23.39;39.15;100239.29;117042;1186;21869;-61
2022/07/22 04:31:03;;;;;;;4.90;1.40;;;;;;;23.58;39.05;100238.35;117212;1186;21879;-55
2022/07/22 04:33:30;;;;;;;3.40;1.90;;;;;;;23.76;38.93;100239.78;117124;1188;23541;-55
2022/07/22 04:35:59;;;;;;;4.60;1.80;;;;;;;23.92;38.64;100237.80;117250;1184;22962;-60
2022/07/22 04:38:26;;;;;;;8.30;1.90;;;;;;;24.08;38.52;100238.67;117296;1186;21853;-61
2022/07/22 04:40:53;;;;;;;5.20;1.60;;;;;;;24.25;38.58;100235.83;117166;1184;23462;-56
2022/07/22 04:43:21;;;;;;;8.40;2.30;;;;;;;24.40;38.39;100231.35;117294;1185;21928;-55
2022/07/22 04:45:48;;;;;;;20.00;2.80;;;;;;;24.55;38.11;100232.95;117100;1188;22635;-55
2022/07/22 04:48:16;;;;;;;6.70;1.70;;;;;;;24.73;38.13;100234.70;117460;1183;23432;-61
2022/07/22 04:50:44;;;;;;;7.40;2.30;;;;;;;24.91;37.82;100231.42;117996;1185;23537;-56
2022/07/22 04:53:11;;;;;;;8.10;3.10;;;;;;;25.08;37.71;100234.27;117542;1184;21904;-56
2022/07/22 04:55:38;;;;;;;9.50;2.40;;;;;;;25.25;37.60;100233.56;117330;1182;21858;-61
2022/07/22 04:58:06;;;;;;;6.80;2.30;;;;;;;25.41;37.31;100231.86;117221;1186;21837;-57
2022/07/22 05:00:39;;;;;;;4.50;2.10;;;;;;;25.53;37.16;100232.66;117141;1186;21888;-56
2022/07/22 05:03:06;;;;;;;7.60;1.80;;;;;;;25.67;37.13;100232.34;117115;1182;23531;-61
2022/07/22 05:05:33;;;;;;;6.60;2.30;;;;;;;25.78;36.98;100230.77;117427;1186;22728;-62
2022/07/22 05:08:00;;;;;;;8.20;2.80;;;;;;;25.89;36.78;100228.80;117298;1188;21857;-61
2022/07/22 05:10:27;;;;;;;7.00;2.40;;;;;;;26.03;36.73;100224.47;117272;1183;24135;-60
2022/07/22 05:12:54;;;;;;;7.00;2.00;;;;;;;26.17;36.71;100222.50;117321;1186;22926;-61
2022/07/22 05:15:22;;;;;;;6.00;2.30;;;;;;;26.31;36.63;100228.77;117275;1186;22902;-56
2022/07/22 05:17:49;;;;;;;6.20;2.50;;;;;;;26.47;36.59;100232.11;117425;1183;21895;-57
2022/07/22 05:20:16;;;;;;;9.40;2.50;;;;;;;26.63;36.18;100228.83;117220;1183;22908;-61
2022/07/22 05:22:43;;;;;;;37.30;6.90;;;;;;;26.79;36.21;100227.77;117322;1183;22918;-57
2022/07/22 05:25:10;;;;;;;10.40;2.90;;;;;;;26.95;36.01;100228.04;117388;1185;22929;-56
2022/07/22 05:27:37;;;;;;;7.00;2.30;;;;;;;27.08;35.77;100224.25;117235;1186;22910;-57
2022/07/22 05:30:05;;;;;;;5.50;2.40;;;;;;;27.18;35.51;100222.55;117257;1183;22653;-57
2022/07/22 05:32:32;;;;;;;8.50;3.30;;;;;;;27.29;35.56;100222.54;117360;1186;22928;-57
2022/07/22 05:34:59;;;;;;;9.80;2.80;;;;;;;27.38;35.31;100225.11;117136;1183;23567;-59
2022/07/22 05:37:26;;;;;;;10.60;2.70;;;;;;;27.45;35.17;100224.04;117142;1186;22975;-57
2022/07/22 05:39:53;;;;;;;4.80;2.20;;;;;;;27.52;35.07;100223.27;117325;1183;21898;-58
2022/07/22 05:42:20;;;;;;;5.40;2.00;;;;;;;27.65;35.18;100222.50;117137;1183;22921;-57
2022/07/22 05:44:48;;;;;;;7.10;2.40;;;;;;;27.77;34.87;100223.80;117270;1186;21847;-57
2022/07/22 05:47:16;;;;;;;4.30;2.20;;;;;;;27.88;34.88;100222.67;117203;1182;23652;-57
2022/07/22 05:49:44;;;;;;;15.60;3.40;;;;;;;28.06;34.85;100219.89;117377;1186;21857;-60
2022/07/22 05:52:11;;;;;;;3.40;1.80;;;;;;;28.20;34.46;100216.31;117347;1186;21878;-56
2022/07/22 05:54:39;;;;;;;8.50;2.10;;;;;;;28.30;34.42;100215.21;117380;1183;21860;-57
2022/07/22 05:57:09;;;;;;;4.80;2.30;;;;;;;28.38;34.33;100215.24;117295;1186;22630;-57
2022/07/22 05:59:37;;;;;;;3.90;1.70;;;;;;;28.50;34.39;100213.05;117289;1186;22630;-57
2022/07/22 06:02:05;;;;;;;18.50;3.10;;;;;;;28.64;34.17;100210.23;117240;1184;22722;-60
2022/07/22 06:04:34;;;;;;;12.40;2.80;;;;;;;28.72;34.04;100213.41;117232;1186;21847;-62
2022/07/22 06:07:01;;;;;;;4.00;1.90;;;;;;;28.80;33.70;100214.22;117377;1186;23517;-57
2022/07/22 06:09:28;;;;;;;4.50;2.30;;;;;;;28.91;33.60;100212.66;117369;1185;22806;-61
2022/07/22 06:11:55;;;;;;;3.20;1.60;;;;;;;29.01;33.71;100213.16;117362;1185;22979;-58
2022/07/22 06:14:22;;;;;;;5.00;2.10;;;;;;;29.14;33.57;100209.02;117286;1183;22808;-61
2022/07/22 06:16:50;;;;;;;4.30;2.00;;;;;;;29.27;33.57;100205.83;117322;1186;22627;-61
2022/07/22 06:19:17;;;;;;;2.50;1.80;;;;;;;29.38;33.46;100205.27;117372;1182;21861;-57
2022/07/22 06:21:44;;;;;;;6.10;2.20;;;;;;;29.46;33.40;100207.70;117334;1186;23560;-60
2022/07/22 06:24:11;;;;;;;5.80;2.00;;;;;;;29.55;33.23;100208.54;117234;1186;22817;-56
2022/07/22 06:26:39;;;;;;;3.50;2.00;;;;;;;29.63;32.93;100207.40;117250;1185;23366;-60
2022/07/22 06:29:07;;;;;;;2.90;1.70;;;;;;;29.74;33.05;100209.64;117241;1186;21900;-60
2022/07/22 06:31:34;;;;;;;9.00;2.30;;;;;;;29.83;32.81;100210.52;117147;1189;22083;-60
2022/07/22 06:34:05;;;;;;;5.10;2.00;;;;;;;29.90;32.98;100212.20;117222;1182;21900;-56
2022/07/22 06:36:32;;;;;;;4.10;1.90;;;;;;;29.98;33.16;100211.86;117179;1186;21892;-62
2022/07/22 06:39:00;;;;;;;5.70;2.00;;;;;;;30.06;33.03;100209.45;117289;1186;22801;-57
2022/07/22 06:41:27;;;;;;;3.00;2.00;;;;;;;30.15;32.57;100210.23;117360;1186;21858;-57
2022/07/22 06:43:55;;;;;;;4.80;2.00;;;;;;;30.26;32.77;100211.52;117217;1186;23701;-61
2022/07/22 06:46:22;;;;;;;4.60;2.10;;;;;;;30.48;32.49;100212.06;117187;1186;21848;-57
2022/07/22 06:48:49;;;;;;;11.10;4.30;;;;;;;30.72;32.39;100208.63;117223;1186;22932;-57
2022/07/22 06:51:16;;;;;;;5.80;3.00;;;;;;;30.86;31.76;100205.94;117198;1185;22985;-56
2022/07/22 06:53:43;;;;;;;5.50;2.20;;;;;;;30.90;31.82;100209.54;117216;1183;23445;-58
2022/07/22 06:56:14;;;;;;;4.50;2.30;;;;;;;30.90;31.60;100212.73;117216;1186;21879;-61
2022/07/22 06:58:42;;;;;;;5.30;2.60;;;;;;;30.98;32.24;100210.52;117286;1186;21861;-56
2022/07/22 07:01:09;;;;;;;7.20;4.50;;;;;;;31.14;31.98;100206.40;117241;1183;22921;-60
2022/07/22 07:03:36;;;;;;;15.20;10.10;;;;;;;31.24;31.90;100205.58;117267;1186;22902;-57
2022/07/22 07:06:06;;;;;;;17.00;11.60;;;;;;;31.37;31.81;100206.07;117408;1186;22932;-61
2022/07/22 07:08:33;;;;;;;7.00;4.50;;;;;;;31.51;31.64;100208.38;117307;1186;21852;-57
2022/07/22 07:11:01;;;;;;;5.60;3.00;;;;;;;31.71;31.55;100212.55;117277;1183;22942;-60
2022/07/22 07:13:29;;;;;;;5.60;3.60;;;;;;;31.85;31.50;100211.86;117228;1182;23564;-61
2022/07/22 07:15:56;;;;;;;7.00;2.90;;;;;;;31.96;31.53;100215.95;117175;1186;22070;-60
2022/07/22 07:18:24;;;;;;;6.00;2.90;;;;;;;32.07;31.27;100220.60;117328;1185;21930;-62
2022/07/22 07:20:55;;;;;;;5.30;2.90;;;;;;;32.35;31.43;100218.92;117023;1187;22924;-59
2022/07/22 07:23:24;;;;;;;6.70;3.20;;;;;;;32.32;31.07;100218.17;117190;1183;22711;-58
2022/07/22 07:25:53;;;;;;;5.70;2.80;;;;;;;32.32;30.46;100220.83;117305;1187;22816;-59
2022/07/22 07:28:22;;;;;;;8.10;3.20;;;;;;;32.32;30.51;100221.09;117255;1183;22988;-63
2022/07/22 07:30:50;;;;;;;9.40;3.20;;;;;;;32.37;30.53;100220.13;117136;1186;22911;-57
2022/07/22 07:33:17;;;;;;;4.40;2.60;;;;;;;32.44;30.78;100214.16;117171;1189;21857;-57
2022/07/22 07:35:44;;;;;;;4.10;2.80;;;;;;;32.49;30.61;100211.91;117221;1188;21861;-58
2022/07/22 07:38:11;;;;;;;5.40;2.50;;;;;;;32.54;30.58;100210.46;117177;1182;22840;-61
2022/07/22 07:40:38;;;;;;;4.80;2.80;;;;;;;32.61;30.39;100211.04;117216;1186;21891;-61
2022/07/22 07:43:07;;;;;;;4.80;3.10;;;;;;;32.68;30.41;100210.50;117258;1180;21880;-62
2022/07/22 07:45:38;;;;;;;6.60;2.60;;;;;;;32.83;30.60;100206.35;117193;1186;21907;-62
2022/07/22 07:48:05;;;;;;;4.90;3.10;;;;;;;32.94;30.25;100201.89;117266;1182;21859;-58
2022/07/22 07:50:32;;;;;;;6.70;3.00;;;;;;;33.00;30.10;100200.51;117252;1182;23693;-61
2022/07/22 07:52:59;;;;;;;4.20;3.20;;;;;;;33.20;30.48;100203.94;117295;1186;21909;-59
2022/07/22 07:55:27;;;;;;;6.50;3.30;;;;;;;33.43;29.99;100201.39;117279;1186;22968;-60
2022/07/22 07:57:54;;;;;;;6.20;3.60;;;;;;;33.49;29.46;100201.45;117186;1183;21867;-59
2022/07/22 08:00:23;;;;;;;5.20;3.60;;;;;;;33.49;29.61;100205.85;117208;1180;23615;-61
2022/07/22 08:02:50;;;;;;;9.30;3.50;;;;;;;33.53;29.83;100203.23;117298;1182;21865;-58
2022/07/22 08:05:19;;;;;;;6.00;3.60;;;;;;;33.63;29.78;100198.60;117326;1182;21860;-58
2022/07/22 08:07:47;;;;;;;4.10;3.20;;;;;;;33.77;29.79;100198.27;116911;1187;24178;-59
2022/07/22 08:10:15;;;;;;;5.40;3.20;;;;;;;33.92;29.74;100198.44;117361;1185;21858;-60
2022/07/22 08:13:03;;;;;;;4.60;3.40;;;;;;;33.95;29.64;100193.52;117276;1182;21894;-59
2022/07/22 08:15:30;;;;;;;6.60;3.30;;;;;;;34.12;29.82;100185.18;117257;1182;22932;-59
2022/07/22 08:17:58;;;;;;;4.20;2.50;;;;;;;34.26;29.45;100185.66;117294;1186;21910;-62
2022/07/22 08:20:25;;;;;;;4.70;2.70;;;;;;;34.41;29.28;100187.86;117282;1186;22002;-59
2022/07/22 08:22:52;;;;;;;7.90;3.40;;;;;;;34.64;28.86;100183.39;117177;1183;22928;-61
2022/07/22 08:25:20;;;;;;;8.90;4.90;;;;;;;34.81;28.55;100185.09;117223;1186;21903;-58
2022/07/22 08:27:47;;;;;;;8.90;5.80;;;;;;;34.86;28.40;100180.64;117181;1185;22918;-59
2022/07/22 08:30:15;;;;;;;4.20;2.90;;;;;;;34.88;28.12;100180.63;117197;1186;23431;-61
2022/07/22 08:32:42;;;;;;;11.80;3.60;;;;;;;34.90;28.01;100181.11;117215;1186;23566;-58
2022/07/22 08:35:09;;;;;;;5.00;2.80;;;;;;;34.84;27.21;100181.30;117228;1182;24996;-58
2022/07/22 08:37:37;;;;;;;4.60;3.20;;;;;;;34.78;27.62;100183.58;117052;1186;21886;-59
2022/07/22 08:40:06;;;;;;;6.30;2.40;;;;;;;34.83;27.80;100183.95;117279;1186;22845;-62
2022/07/22 08:42:36;;;;;;;5.40;2.60;;;;;;;34.88;27.71;100184.83;117317;1185;21860;-61
2022/07/22 08:45:04;;;;;;;8.90;2.70;;;;;;;35.10;27.22;100188.05;117046;1186;22921;-58
2022/07/22 08:47:32;;;;;;;8.70;2.60;;;;;;;35.32;27.09;100185.94;117102;1187;21861;-60
2022/07/22 08:50:09;;;;;;;5.00;2.00;;;;;;;35.41;26.48;100185.97;117148;1186;21999;-57
2022/07/22 08:52:36;;;;;;;6.80;2.90;;;;;;;35.39;25.82;100188.21;117224;1186;21870;-61
2022/07/22 08:55:05;;;;;;;6.30;2.50;;;;;;;35.32;26.06;100191.78;117055;1186;23636;-61
2022/07/22 08:57:32;;;;;;;7.70;2.10;;;;;;;35.18;25.83;100188.94;117313;1186;22464;-57
2022/07/22 09:00:00;;;;;;;4.20;1.70;;;;;;;35.04;25.33;100192.83;117249;1186;21947;-60
2022/07/22 09:02:27;;;;;;;4.40;2.10;;;;;;;35.02;25.48;100190.48;117309;1185;21866;-58
2022/07/22 09:05:01;;;;;;;9.60;2.60;;;;;;;35.00;24.90;100193.44;117338;1183;23538;-61
2022/07/22 09:07:48;;;;;;;6.10;1.90;;;;;;;34.81;24.65;100205.09;117089;1182;21859;-58
2022/07/22 09:10:17;;;;;;;3.00;1.50;;;;;;;34.55;25.28;100204.53;117233;1182;23445;-58
2022/07/22 09:12:51;;;;;;;6.80;2.00;;;;;;;34.54;25.53;100204.34;117203;1186;22639;-60
2022/07/22 09:15:37;;;;;;;11.70;1.70;;;;;;;34.71;25.08;100206.52;117282;1183;22910;-59
2022/07/22 09:18:05;;;;;;;5.60;1.60;;;;;;;34.89;24.73;100208.86;117217;1187;24237;-58
2022/07/22 09:20:34;;;;;;;4.00;1.70;;;;;;;34.96;24.62;100211.39;117289;1186;21875;-61
2022/07/22 09:23:08;;;;;;;2.70;1.70;;;;;;;35.01;24.40;100211.72;117266;1186;21857;-58
2022/07/22 09:25:36;;;;;;;5.00;1.90;;;;;;;35.08;24.71;100212.48;117307;1183;21857;-59
2022/07/22 09:28:06;;;;;;;5.00;1.50;;;;;;;35.28;24.63;100206.89;117246;1185;22941;-60
2022/07/22 09:30:46;;;;;;;3.20;1.40;;;;;;;35.54;24.68;100211.86;117204;1185;21866;-58
2022/07/22 09:33:15;;;;;;;3.60;1.30;;;;;;;35.76;24.04;100213.95;117070;1182;21871;-58
2022/07/22 09:35:44;;;;;;;5.10;1.70;;;;;;;35.87;23.88;100213.95;117070;1186;21856;-60
2022/07/22 09:38:16;;;;;;;6.80;1.50;;;;;;;35.92;23.62;100211.58;117271;1182;22337;-61
2022/07/22 09:40:47;;;;;;;2.70;1.30;;;;;;;35.96;23.66;100214.04;117387;1186;21859;-61
2022/07/22 09:43:19;;;;;;;12.70;2.10;;;;;;;36.12;23.47;100218.73;117239;1183;23633;-58
2022/07/22 09:45:59;;;;;;;4.10;1.20;;;;;;;36.21;23.42;100217.52;117317;1183;22923;-58
2022/07/22 09:48:26;;;;;;;5.10;1.50;;;;;;;36.34;23.31;100212.41;117204;1187;22912;-60
2022/07/22 09:50:55;;;;;;;4.90;1.30;;;;;;;36.42;22.66;100212.42;117223;1186;21871;-58
2022/07/22 09:53:23;;;;;;;2.40;1.10;;;;;;;36.55;23.28;100211.84;117346;1185;21860;-61
2022/07/22 11:04:55;;;;;;;7.20;1.50;;;;;;;36.31;22.88;100232.06;115023;1204;547778;-64
2022/07/22 11:07:22;;;;;;;5.90;1.90;;;;;;;37.87;21.60;100227.73;116635;1189;21871;-60
2022/07/22 11:09:49;;;;;;;7.00;1.20;;;;;;;38.14;21.49;100231.06;116464;1192;22919;-63
2022/07/22 11:12:16;;;;;;;2.50;1.40;;;;;;;38.16;20.29;100227.31;116569;1192;22057;-63
2022/07/22 11:14:44;;;;;;;4.00;1.30;;;;;;;38.13;20.67;100233.43;116549;1192;24200;-59
2022/07/22 11:17:13;;;;;;;5.70;1.70;;;;;;;38.05;20.39;100236.64;116550;1192;22927;-59
2022/07/22 11:19:40;;;;;;;3.30;1.50;;;;;;;37.89;19.97;100237.39;116697;1191;21858;-59
2022/07/22 11:22:09;;;;;;;1.90;1.40;;;;;;;37.86;20.70;100229.96;116583;1192;21858;-61
2022/07/22 11:24:37;;;;;;;2.80;1.40;;;;;;;37.93;20.40;100230.38;116445;1191;22930;-65
2022/07/22 11:27:04;;;;;;;8.10;1.50;;;;;;;37.96;20.34;100235.64;116431;1195;21913;-63
2022/07/22 11:29:37;;;;;;;9.20;1.30;;;;;;;37.92;20.39;100230.82;116798;1190;23675;-60
2022/07/22 11:32:06;;;;;;;11.20;1.60;;;;;;;37.92;20.47;100230.05;116672;1186;21988;-61
2022/07/22 11:34:35;;;;;;;93.50;9.10;;;;;;;38.07;20.56;100230.27;116655;1191;22933;-61
2022/07/22 11:37:02;;;;;;;35.90;3.80;;;;;;;38.14;20.30;100233.14;116966;1188;24348;-60
2022/07/22 11:39:29;;;;;;;3.80;1.70;;;;;;;38.05;20.09;100237.40;116910;1184;21922;-62
2022/07/22 11:41:59;;;;;;;7.60;2.20;;;;;;;37.96;19.81;100231.65;116715;1187;23017;-61
2022/07/22 11:44:30;;;;;;;3.90;1.80;;;;;;;37.96;20.05;100233.80;116972;1189;21859;-62
2022/07/22 11:47:00;;;;;;;4.80;1.80;;;;;;;38.07;19.94;100235.56;117082;1186;21919;-65
2022/07/22 11:49:29;;;;;;;10.30;2.40;;;;;;;38.04;20.11;100232.41;117075;1185;22654;-60
2022/07/22 11:51:56;;;;;;;5.40;1.60;;;;;;;38.10;20.07;100230.96;117057;1186;21860;-58
2022/07/22 11:54:23;;;;;;;3.20;1.40;;;;;;;38.27;20.66;100228.83;117020;1188;21866;-61
2022/07/22 11:56:50;;;;;;;4.80;1.80;;;;;;;38.46;20.60;100230.36;117004;1188;22658;-59
2022/07/22 11:59:23;;;;;;;4.00;1.70;;;;;;;38.40;19.63;100226.73;116992;1188;23651;-59
2022/07/22 12:01:50;;;;;;;4.00;2.40;;;;;;;38.30;19.65;100225.88;116885;1185;22640;-59
2022/07/22 12:04:22;;;;;;;3.20;1.90;;;;;;;38.38;19.92;100222.46;116914;1185;23650;-59
2022/07/22 12:06:49;;;;;;;5.40;1.90;;;;;;;38.49;20.16;100220.42;116763;1189;23000;-62
2022/07/22 12:09:28;;;;;;;6.80;2.30;;;;;;;38.52;19.50;100223.79;116931;1186;21869;-63
2022/07/22 12:11:57;;;;;;;3.10;2.20;;;;;;;38.37;19.15;100226.16;116746;1185;22857;-63
2022/07/22 12:14:29;;;;;;;3.50;2.50;;;;;;;38.31;19.16;100214.90;116945;1187;21913;-61
2022/07/22 12:16:59;;;;;;;4.80;2.50;;;;;;;38.31;19.19;100218.70;116763;1187;22928;-63
2022/07/22 12:19:30;;;;;;;8.10;2.40;;;;;;;38.43;19.18;100218.13;116936;1189;22967;-64
2022/07/22 12:22:21;;;;;;;13.50;2.70;;;;;;;38.49;18.99;100223.90;116918;1188;22089;-60
2022/07/22 12:25:00;;;;;;;6.30;2.10;;;;;;;38.44;19.22;100226.85;116884;1185;23560;-60
2022/07/22 12:27:28;;;;;;;2.80;1.80;;;;;;;38.36;19.29;100215.30;116970;1186;21861;-64
2022/07/22 12:29:55;;;;;;;4.70;1.50;;;;;;;38.33;18.72;100221.00;116987;1186;24178;-63